sensor_id;sensor_type;location;lat;lon;timestamp;pressure;altitude;pressure_sealevel;temperature;humidity
4273;BME280;63887;53.656;9.810;2022-10-16T00:00:45;100981.19;;;13.11;92.15
4273;BME280;63887;53.656;9.810;2022-10-16T00:03:12;100978.34;;;13.14;91.99
4273;BME280;63887;53.656;9.810;2022-10-16T00:05:40;100978.72;;;13.08;92.38
4273;BME280;63887;53.656;9.810;2022-10-16T00:08:07;100980.69;;;13.04;92.13
4273;BME280;63887;53.656;9.810;2022-10-16T00:10:34;100976.28;;;13.05;92.24
4273;BME280;63887;53.656;9.810;2022-10-16T00:13:00;100985.88;;;13.06;92.05
4273;BME280;63887;53.656;9.810;2022-10-16T00:15:27;100984.66;;;13.11;92.04
4273;BME280;63887;53.656;9.810;2022-10-16T00:17:54;100993.75;;;13.06;92.26
4273;BME280;63887;53.656;9.810;2022-10-16T00:20:21;100990.94;;;13.09;91.98
4273;BME280;63887;53.656;9.810;2022-10-16T00:22:47;100980.25;;;13.12;91.46
4273;BME280;63887;53.656;9.810;2022-10-16T00:25:14;100981.28;;;13.09;91.57
4273;BME280;63887;53.656;9.810;2022-10-16T00:27:40;100988.50;;;13.06;91.70
4273;BME280;63887;53.656;9.810;2022-10-16T00:30:08;100986.81;;;13.05;91.67
4273;BME280;63887;53.656;9.810;2022-10-16T00:32:34;100995.09;;;13.13;91.26
4273;BME280;63887;53.656;9.810;2022-10-16T00:35:02;100996.88;;;13.12;91.40
4273;BME280;63887;53.656;9.810;2022-10-16T00:37:29;100992.28;;;13.16;91.07
4273;BME280;63887;53.656;9.810;2022-10-16T00:39:55;100989.28;;;13.22;90.50
4273;BME280;63887;53.656;9.810;2022-10-16T00:42:22;101001.50;;;13.23;90.40
4273;BME280;63887;53.656;9.810;2022-10-16T00:44:50;100999.72;;;13.24;90.24
4273;BME280;63887;53.656;9.810;2022-10-16T00:47:22;101006.69;;;13.25;89.92
4273;BME280;63887;53.656;9.810;2022-10-16T00:49:53;101004.63;;;13.30;89.15
4273;BME280;63887;53.656;9.810;2022-10-16T00:52:23;101015.06;;;13.31;88.02
4273;BME280;63887;53.656;9.810;2022-10-16T00:54:52;100999.81;;;13.22;88.66
4273;BME280;63887;53.656;9.810;2022-10-16T00:57:19;101010.34;;;13.22;88.56
4273;BME280;63887;53.656;9.810;2022-10-16T00:59:46;101011.53;;;13.17;88.62
4273;BME280;63887;53.656;9.810;2022-10-16T01:02:14;101006.56;;;13.12;88.42
4273;BME280;63887;53.656;9.810;2022-10-16T01:04:43;101008.53;;;13.08;88.58
4273;BME280;63887;53.656;9.810;2022-10-16T01:07:16;101008.47;;;13.10;88.08
4273;BME280;63887;53.656;9.810;2022-10-16T01:09:58;101012.19;;;13.06;87.78
4273;BME280;63887;53.656;9.810;2022-10-16T01:12:33;101014.88;;;13.20;86.58
4273;BME280;63887;53.656;9.810;2022-10-16T01:15:07;101015.41;;;13.11;86.29
4273;BME280;63887;53.656;9.810;2022-10-16T01:17:41;101015.78;;;13.05;86.54
4273;BME280;63887;53.656;9.810;2022-10-16T01:20:14;101021.22;;;13.02;87.26
4273;BME280;63887;53.656;9.810;2022-10-16T01:22:56;101022.28;;;12.99;86.61
4273;BME280;63887;53.656;9.810;2022-10-16T01:25:45;101018.50;;;12.89;87.02
4273;BME280;63887;53.656;9.810;2022-10-16T01:28:18;101022.72;;;12.92;87.18
4273;BME280;63887;53.656;9.810;2022-10-16T01:30:48;101026.09;;;12.94;86.85
4273;BME280;63887;53.656;9.810;2022-10-16T01:33:20;101021.88;;;12.91;86.51
4273;BME280;63887;53.656;9.810;2022-10-16T01:35:50;101025.44;;;12.90;86.42
4273;BME280;63887;53.656;9.810;2022-10-16T01:38:21;101022.91;;;12.89;86.65
4273;BME280;63887;53.656;9.810;2022-10-16T01:40:51;101014.53;;;12.82;86.92
4273;BME280;63887;53.656;9.810;2022-10-16T01:43:25;101016.22;;;12.83;87.09
4273;BME280;63887;53.656;9.810;2022-10-16T01:45:54;101024.47;;;12.77;87.17
4273;BME280;63887;53.656;9.810;2022-10-16T01:48:21;101026.16;;;12.78;86.88
4273;BME280;63887;53.656;9.810;2022-10-16T01:50:53;101023.06;;;12.71;87.40
4273;BME280;63887;53.656;9.810;2022-10-16T01:53:22;101026.97;;;12.64;87.57
4273;BME280;63887;53.656;9.810;2022-10-16T01:55:49;101022.78;;;12.76;86.49
4273;BME280;63887;53.656;9.810;2022-10-16T01:58:18;101029.28;;;12.70;86.47
4273;BME280;63887;53.656;9.810;2022-10-16T02:00:47;101038.44;;;12.63;87.11
4273;BME280;63887;53.656;9.810;2022-10-16T02:03:16;101030.66;;;12.62;87.13
4273;BME280;63887;53.656;9.810;2022-10-16T02:05:46;101032.53;;;12.60;87.25
4273;BME280;63887;53.656;9.810;2022-10-16T02:08:13;101024.81;;;12.57;87.08
4273;BME280;63887;53.656;9.810;2022-10-16T02:10:40;101029.22;;;12.56;87.40
4273;BME280;63887;53.656;9.810;2022-10-16T02:13:09;101026.78;;;12.53;87.15
4273;BME280;63887;53.656;9.810;2022-10-16T02:15:36;101021.53;;;12.53;87.51
4273;BME280;63887;53.656;9.810;2022-10-16T02:18:05;101023.47;;;12.49;87.62
4273;BME280;63887;53.656;9.810;2022-10-16T02:20:36;101025.63;;;12.43;87.56
4273;BME280;63887;53.656;9.810;2022-10-16T02:23:06;101031.72;;;12.43;87.13
4273;BME280;63887;53.656;9.810;2022-10-16T02:25:38;101028.53;;;12.38;88.02
4273;BME280;63887;53.656;9.810;2022-10-16T02:28:08;101031.50;;;12.32;88.08
4273;BME280;63887;53.656;9.810;2022-10-16T02:30:40;101037.88;;;12.28;88.53
4273;BME280;63887;53.656;9.810;2022-10-16T02:33:11;101039.19;;;12.21;88.25
4273;BME280;63887;53.656;9.810;2022-10-16T02:35:40;101040.03;;;12.21;87.96
4273;BME280;63887;53.656;9.810;2022-10-16T02:38:08;101041.53;;;12.26;87.93
4273;BME280;63887;53.656;9.810;2022-10-16T02:40:35;101037.97;;;12.27;87.83
4273;BME280;63887;53.656;9.810;2022-10-16T02:43:04;101041.63;;;12.24;88.18
4273;BME280;63887;53.656;9.810;2022-10-16T02:45:32;101038.66;;;12.14;88.06
4273;BME280;63887;53.656;9.810;2022-10-16T02:47:58;101036.88;;;12.15;87.79
4273;BME280;63887;53.656;9.810;2022-10-16T02:50:26;101029.56;;;12.20;87.77
4273;BME280;63887;53.656;9.810;2022-10-16T02:52:53;101034.81;;;12.20;87.22
4273;BME280;63887;53.656;9.810;2022-10-16T02:55:19;101029.22;;;12.26;86.79
4273;BME280;63887;53.656;9.810;2022-10-16T02:57:46;101032.13;;;12.21;86.38
4273;BME280;63887;53.656;9.810;2022-10-16T03:00:15;101032.13;;;12.21;86.42
4273;BME280;63887;53.656;9.810;2022-10-16T03:02:42;101038.66;;;12.14;87.07
4273;BME280;63887;53.656;9.810;2022-10-16T03:05:09;101038.31;;;12.20;86.87
4273;BME280;63887;53.656;9.810;2022-10-16T03:07:37;101034.50;;;12.10;87.52
4273;BME280;63887;53.656;9.810;2022-10-16T03:10:04;101034.25;;;11.99;87.61
4273;BME280;63887;53.656;9.810;2022-10-16T03:12:31;101024.88;;;11.95;87.82
4273;BME280;63887;53.656;9.810;2022-10-16T03:14:57;101019.16;;;12.03;87.16
4273;BME280;63887;53.656;9.810;2022-10-16T03:17:25;101016.31;;;11.91;88.07
4273;BME280;63887;53.656;9.810;2022-10-16T03:19:51;101019.00;;;11.90;87.47
4273;BME280;63887;53.656;9.810;2022-10-16T03:22:18;101024.25;;;11.90;87.91
4273;BME280;63887;53.656;9.810;2022-10-16T03:24:45;101032.41;;;11.85;87.81
4273;BME280;63887;53.656;9.810;2022-10-16T03:27:12;101027.41;;;11.81;88.23
4273;BME280;63887;53.656;9.810;2022-10-16T03:29:38;101026.31;;;11.85;87.73
4273;BME280;63887;53.656;9.810;2022-10-16T03:32:05;101026.22;;;11.86;87.73
4273;BME280;63887;53.656;9.810;2022-10-16T03:34:31;101024.78;;;11.81;88.22
4273;BME280;63887;53.656;9.810;2022-10-16T03:36:57;101023.66;;;11.85;87.67
4273;BME280;63887;53.656;9.810;2022-10-16T03:39:24;101029.78;;;11.85;87.65
4273;BME280;63887;53.656;9.810;2022-10-16T03:41:52;101031.56;;;11.85;87.76
4273;BME280;63887;53.656;9.810;2022-10-16T03:44:18;101031.81;;;11.80;88.10
4273;BME280;63887;53.656;9.810;2022-10-16T03:46:45;101035.88;;;11.86;88.03
4273;BME280;63887;53.656;9.810;2022-10-16T03:49:11;101045.72;;;11.82;87.90
4273;BME280;63887;53.656;9.810;2022-10-16T03:51:37;101041.69;;;11.75;87.95
4273;BME280;63887;53.656;9.810;2022-10-16T03:54:04;101044.16;;;11.78;88.14
4273;BME280;63887;53.656;9.810;2022-10-16T03:56:30;101039.69;;;11.80;88.35
4273;BME280;63887;53.656;9.810;2022-10-16T03:58:58;101047.72;;;11.77;88.21
4273;BME280;63887;53.656;9.810;2022-10-16T04:01:24;101059.22;;;11.75;88.27
4273;BME280;63887;53.656;9.810;2022-10-16T04:03:51;101063.44;;;11.79;88.09
4273;BME280;63887;53.656;9.810;2022-10-16T04:06:17;101070.41;;;11.80;88.31
4273;BME280;63887;53.656;9.810;2022-10-16T04:08:44;101064.78;;;11.86;88.14
4273;BME280;63887;53.656;9.810;2022-10-16T04:11:10;101072.09;;;11.81;88.42
4273;BME280;63887;53.656;9.810;2022-10-16T04:13:37;101070.53;;;11.77;88.11
4273;BME280;63887;53.656;9.810;2022-10-16T04:16:05;101068.06;;;11.74;88.31
4273;BME280;63887;53.656;9.810;2022-10-16T04:18:32;101077.34;;;11.81;88.28
4273;BME280;63887;53.656;9.810;2022-10-16T04:21:02;101080.97;;;11.78;88.00
4273;BME280;63887;53.656;9.810;2022-10-16T04:23:29;101087.09;;;11.79;88.42
4273;BME280;63887;53.656;9.810;2022-10-16T04:25:55;101080.56;;;11.86;87.70
4273;BME280;63887;53.656;9.810;2022-10-16T04:28:22;101074.81;;;11.79;87.91
4273;BME280;63887;53.656;9.810;2022-10-16T04:30:48;101075.66;;;11.80;87.97
4273;BME280;63887;53.656;9.810;2022-10-16T04:33:16;101070.97;;;11.85;87.49
4273;BME280;63887;53.656;9.810;2022-10-16T04:35:43;101080.91;;;11.96;87.31
4273;BME280;63887;53.656;9.810;2022-10-16T04:38:09;101090.41;;;11.82;87.79
4273;BME280;63887;53.656;9.810;2022-10-16T04:40:35;101089.78;;;11.77;87.90
4273;BME280;63887;53.656;9.810;2022-10-16T04:43:02;101095.34;;;11.71;88.41
4273;BME280;63887;53.656;9.810;2022-10-16T04:45:29;101106.28;;;11.63;88.47
4273;BME280;63887;53.656;9.810;2022-10-16T04:47:56;101102.38;;;11.71;88.32
4273;BME280;63887;53.656;9.810;2022-10-16T04:50:24;101103.16;;;11.73;87.74
4273;BME280;63887;53.656;9.810;2022-10-16T04:52:51;101101.63;;;11.69;88.12
4273;BME280;63887;53.656;9.810;2022-10-16T04:55:17;101099.59;;;11.74;88.28
4273;BME280;63887;53.656;9.810;2022-10-16T04:57:44;101099.59;;;11.74;88.58
4273;BME280;63887;53.656;9.810;2022-10-16T05:00:11;101090.78;;;11.75;88.26
4273;BME280;63887;53.656;9.810;2022-10-16T05:02:37;101087.94;;;11.79;87.77
4273;BME280;63887;53.656;9.810;2022-10-16T05:05:05;101083.91;;;11.72;88.17
4273;BME280;63887;53.656;9.810;2022-10-16T05:07:33;101088.94;;;11.77;87.99
4273;BME280;63887;53.656;9.810;2022-10-16T05:09:59;101102.22;;;11.74;88.57
4273;BME280;63887;53.656;9.810;2022-10-16T05:12:26;101103.38;;;11.85;87.46
4273;BME280;63887;53.656;9.810;2022-10-16T05:14:52;101111.16;;;11.87;87.40
4273;BME280;63887;53.656;9.810;2022-10-16T05:17:23;101109.91;;;11.94;87.21
4273;BME280;63887;53.656;9.810;2022-10-16T05:19:49;101117.97;;;11.91;87.55
4273;BME280;63887;53.656;9.810;2022-10-16T05:22:16;101112.72;;;11.91;87.95
4273;BME280;63887;53.656;9.810;2022-10-16T05:24:44;101121.94;;;11.98;87.73
4273;BME280;63887;53.656;9.810;2022-10-16T05:27:10;101126.75;;;11.90;88.11
4273;BME280;63887;53.656;9.810;2022-10-16T05:29:44;101136.38;;;11.91;88.71
4273;BME280;63887;53.656;9.810;2022-10-16T05:32:10;101135.44;;;11.92;88.04
4273;BME280;63887;53.656;9.810;2022-10-16T05:34:36;101136.31;;;12.08;87.21
4273;BME280;63887;53.656;9.810;2022-10-16T05:37:03;101138.66;;;11.97;88.23
4273;BME280;63887;53.656;9.810;2022-10-16T05:39:29;101134.34;;;11.96;88.53
4273;BME280;63887;53.656;9.810;2022-10-16T05:41:57;101131.28;;;12.04;87.91
4273;BME280;63887;53.656;9.810;2022-10-16T05:44:23;101141.19;;;11.99;88.43
4273;BME280;63887;53.656;9.810;2022-10-16T05:46:50;101131.22;;;12.05;87.57
4273;BME280;63887;53.656;9.810;2022-10-16T05:49:16;101136.97;;;12.12;87.55
4273;BME280;63887;53.656;9.810;2022-10-16T05:51:43;101132.97;;;12.05;87.96
4273;BME280;63887;53.656;9.810;2022-10-16T05:54:09;101131.44;;;12.01;88.40
4273;BME280;63887;53.656;9.810;2022-10-16T05:56:35;101136.19;;;11.94;88.75
4273;BME280;63887;53.656;9.810;2022-10-16T05:59:04;101134.50;;;11.93;88.27
4273;BME280;63887;53.656;9.810;2022-10-16T06:01:31;101135.28;;;11.95;88.32
4273;BME280;63887;53.656;9.810;2022-10-16T06:03:58;101134.50;;;11.93;88.54
4273;BME280;63887;53.656;9.810;2022-10-16T06:06:26;101146.19;;;11.87;89.08
4273;BME280;63887;53.656;9.810;2022-10-16T06:08:54;101142.97;;;11.98;88.69
4273;BME280;63887;53.656;9.810;2022-10-16T06:11:22;101143.41;;;11.90;88.62
4273;BME280;63887;53.656;9.810;2022-10-16T06:13:49;101142.41;;;11.93;88.44
4273;BME280;63887;53.656;9.810;2022-10-16T06:16:17;101139.78;;;12.09;88.59
4273;BME280;63887;53.656;9.810;2022-10-16T06:18:44;101147.31;;;11.99;88.97
4273;BME280;63887;53.656;9.810;2022-10-16T06:21:13;101145.63;;;12.14;88.49
4273;BME280;63887;53.656;9.810;2022-10-16T06:23:40;101150.03;;;12.13;88.22
4273;BME280;63887;53.656;9.810;2022-10-16T06:26:07;101154.63;;;12.10;88.52
4273;BME280;63887;53.656;9.810;2022-10-16T06:28:33;101154.78;;;12.07;88.66
4273;BME280;63887;53.656;9.810;2022-10-16T06:31:00;101149.28;;;12.11;88.52
4273;BME280;63887;53.656;9.810;2022-10-16T06:33:28;101164.28;;;12.09;88.29
4273;BME280;63887;53.656;9.810;2022-10-16T06:36:00;101176.41;;;12.12;88.87
4273;BME280;63887;53.656;9.810;2022-10-16T06:38:26;101175.06;;;12.20;88.41
4273;BME280;63887;53.656;9.810;2022-10-16T06:40:53;101178.88;;;12.31;87.99
4273;BME280;63887;53.656;9.810;2022-10-16T06:43:19;101175.22;;;12.49;87.07
4273;BME280;63887;53.656;9.810;2022-10-16T06:45:50;101180.47;;;12.49;86.88
4273;BME280;63887;53.656;9.810;2022-10-16T06:48:17;101181.69;;;12.59;87.05
4273;BME280;63887;53.656;9.810;2022-10-16T06:50:55;101185.75;;;12.65;86.69
4273;BME280;63887;53.656;9.810;2022-10-16T06:53:21;101180.41;;;12.66;87.06
4273;BME280;63887;53.656;9.810;2022-10-16T06:55:47;101198.91;;;12.65;87.19
4273;BME280;63887;53.656;9.810;2022-10-16T06:58:14;101201.47;;;12.66;87.29
4273;BME280;63887;53.656;9.810;2022-10-16T07:00:40;101202.31;;;12.67;87.58
4273;BME280;63887;53.656;9.810;2022-10-16T07:03:07;101203.75;;;12.72;87.15
4273;BME280;63887;53.656;9.810;2022-10-16T07:05:37;101208.63;;;12.78;87.23
4273;BME280;63887;53.656;9.810;2022-10-16T07:08:05;101210.59;;;12.91;86.91
4273;BME280;63887;53.656;9.810;2022-10-16T07:10:31;101205.75;;;12.99;86.64
4273;BME280;63887;53.656;9.810;2022-10-16T07:12:58;101214.22;;;13.04;86.59
4273;BME280;63887;53.656;9.810;2022-10-16T07:15:25;101202.56;;;13.08;85.96
4273;BME280;63887;53.656;9.810;2022-10-16T07:17:51;101210.47;;;13.08;86.38
4273;BME280;63887;53.656;9.810;2022-10-16T07:20:18;101225.41;;;13.07;86.39
4273;BME280;63887;53.656;9.810;2022-10-16T07:22:44;101211.72;;;13.17;86.20
4273;BME280;63887;53.656;9.810;2022-10-16T07:25:12;101229.31;;;13.16;86.39
4273;BME280;63887;53.656;9.810;2022-10-16T07:27:39;101229.16;;;13.19;86.35
4273;BME280;63887;53.656;9.810;2022-10-16T07:30:06;101231.19;;;13.30;86.14
4273;BME280;63887;53.656;9.810;2022-10-16T07:32:33;101235.22;;;13.35;86.21
4273;BME280;63887;53.656;9.810;2022-10-16T07:34:59;101236.22;;;13.49;86.11
4273;BME280;63887;53.656;9.810;2022-10-16T07:37:26;101248.38;;;13.65;85.44
4273;BME280;63887;53.656;9.810;2022-10-16T07:39:52;101236.44;;;13.74;84.34
4273;BME280;63887;53.656;9.810;2022-10-16T07:42:20;101246.16;;;13.73;84.70
4273;BME280;63887;53.656;9.810;2022-10-16T07:44:46;101251.78;;;13.67;84.99
4273;BME280;63887;53.656;9.810;2022-10-16T07:47:13;101244.66;;;13.69;85.18
4273;BME280;63887;53.656;9.810;2022-10-16T07:49:39;101253.97;;;13.75;84.91
4273;BME280;63887;53.656;9.810;2022-10-16T07:52:05;101254.88;;;13.60;85.58
4273;BME280;63887;53.656;9.810;2022-10-16T07:54:32;101260.34;;;13.57;85.75
4273;BME280;63887;53.656;9.810;2022-10-16T07:56:58;101257.09;;;13.52;85.85
4273;BME280;63887;53.656;9.810;2022-10-16T07:59:26;101267.06;;;13.47;85.99
4273;BME280;63887;53.656;9.810;2022-10-16T08:01:52;101264.53;;;13.45;86.38
4273;BME280;63887;53.656;9.810;2022-10-16T08:04:19;101264.28;;;13.64;85.71
4273;BME280;63887;53.656;9.810;2022-10-16T08:06:45;101266.94;;;13.64;85.95
4273;BME280;63887;53.656;9.810;2022-10-16T08:09:11;101273.03;;;13.64;86.11
4273;BME280;63887;53.656;9.810;2022-10-16T08:11:38;101277.47;;;13.64;86.62
4273;BME280;63887;53.656;9.810;2022-10-16T08:14:04;101273.66;;;13.84;84.84
4273;BME280;63887;53.656;9.810;2022-10-16T08:16:32;101269.41;;;13.81;85.34
4273;BME280;63887;53.656;9.810;2022-10-16T08:18:59;101271.19;;;13.81;85.64
4273;BME280;63887;53.656;9.810;2022-10-16T08:21:25;101273.75;;;14.11;84.18
4273;BME280;63887;53.656;9.810;2022-10-16T08:23:52;101280.56;;;14.00;84.73
4273;BME280;63887;53.656;9.810;2022-10-16T08:26:19;101292.13;;;14.12;84.65
4273;BME280;63887;53.656;9.810;2022-10-16T08:28:49;101280.72;;;14.26;84.57
4273;BME280;63887;53.656;9.810;2022-10-16T08:31:16;101269.94;;;14.45;83.89
4273;BME280;63887;53.656;9.810;2022-10-16T08:33:44;101275.13;;;14.46;83.33
4273;BME280;63887;53.656;9.810;2022-10-16T08:36:12;101280.63;;;14.42;83.77
4273;BME280;63887;53.656;9.810;2022-10-16T08:38:39;101279.66;;;14.44;83.68
4273;BME280;63887;53.656;9.810;2022-10-16T08:41:20;101277.25;;;14.40;83.79
4273;BME280;63887;53.656;9.810;2022-10-16T08:46:51;101284.22;;;14.41;83.61
4273;BME280;63887;53.656;9.810;2022-10-16T08:49:22;101299.59;;;14.34;84.15
4273;BME280;63887;53.656;9.810;2022-10-16T08:51:49;101299.69;;;14.32;84.39
4273;BME280;63887;53.656;9.810;2022-10-16T08:54:28;101315.78;;;14.42;83.95
4273;BME280;63887;53.656;9.810;2022-10-16T08:56:55;101313.16;;;14.42;83.95
4273;BME280;63887;53.656;9.810;2022-10-16T08:59:22;101320.34;;;14.54;82.76
4273;BME280;63887;53.656;9.810;2022-10-16T09:01:50;101318.34;;;14.58;83.17
4273;BME280;63887;53.656;9.810;2022-10-16T09:04:42;101319.28;;;14.57;83.14
4273;BME280;63887;53.656;9.810;2022-10-16T09:07:17;101326.34;;;14.71;82.46
4273;BME280;63887;53.656;9.810;2022-10-16T09:10:01;101318.63;;;14.82;82.10
4273;BME280;63887;53.656;9.810;2022-10-16T09:12:37;101338.31;;;14.90;80.98
4273;BME280;63887;53.656;9.810;2022-10-16T09:15:14;101343.88;;;14.86;81.12
4273;BME280;63887;53.656;9.810;2022-10-16T09:17:50;101345.78;;;14.84;81.46
4273;BME280;63887;53.656;9.810;2022-10-16T09:20:34;101346.81;;;14.81;81.97
4273;BME280;63887;53.656;9.810;2022-10-16T09:23:13;101343.44;;;14.79;82.24
4273;BME280;63887;53.656;9.810;2022-10-16T09:25:44;101351.25;;;14.81;81.93
4273;BME280;63887;53.656;9.810;2022-10-16T09:28:11;101348.59;;;14.81;81.70
4273;BME280;63887;53.656;9.810;2022-10-16T09:30:38;101345.78;;;14.84;81.72
4273;BME280;63887;53.656;9.810;2022-10-16T09:33:06;101348.22;;;14.87;81.81
4273;BME280;63887;53.656;9.810;2022-10-16T09:35:38;101349.00;;;14.89;81.12
4273;BME280;63887;53.656;9.810;2022-10-16T09:38:06;101342.88;;;14.88;81.30
4273;BME280;63887;53.656;9.810;2022-10-16T09:40:34;101343.19;;;14.97;80.10
4273;BME280;63887;53.656;9.810;2022-10-16T09:43:12;101344.34;;;14.93;81.37
4273;BME280;63887;53.656;9.810;2022-10-16T09:45:43;101351.88;;;14.99;81.04
4273;BME280;63887;53.656;9.810;2022-10-16T09:48:11;101352.41;;;15.18;80.00
4273;BME280;63887;53.656;9.810;2022-10-16T09:50:39;101353.44;;;15.15;80.05
4273;BME280;63887;53.656;9.810;2022-10-16T09:53:10;101364.84;;;15.16;79.98
4273;BME280;63887;53.656;9.810;2022-10-16T09:55:48;101374.03;;;15.10;80.52
4273;BME280;63887;53.656;9.810;2022-10-16T09:58:14;101375.50;;;15.29;79.43
4273;BME280;63887;53.656;9.810;2022-10-16T10:00:41;101371.16;;;15.28;79.49
4273;BME280;63887;53.656;9.810;2022-10-16T10:03:26;101365.75;;;15.29;80.00
4273;BME280;63887;53.656;9.810;2022-10-16T10:05:58;101381.56;;;15.43;78.23
4273;BME280;63887;53.656;9.810;2022-10-16T10:08:25;101386.53;;;15.35;77.98
4273;BME280;63887;53.656;9.810;2022-10-16T10:10:51;101385.47;;;15.38;78.17
4273;BME280;63887;53.656;9.810;2022-10-16T10:13:22;101378.41;;;15.38;78.39
4273;BME280;63887;53.656;9.810;2022-10-16T10:15:51;101383.22;;;15.32;78.97
4273;BME280;63887;53.656;9.810;2022-10-16T10:18:19;101385.47;;;15.38;78.94
4273;BME280;63887;53.656;9.810;2022-10-16T10:20:58;101383.38;;;15.43;78.54
4273;BME280;63887;53.656;9.810;2022-10-16T10:23:27;101389.97;;;15.50;78.14
4273;BME280;63887;53.656;9.810;2022-10-16T10:25:57;101386.28;;;15.52;77.57
4273;BME280;63887;53.656;9.810;2022-10-16T10:28:47;101385.06;;;15.44;78.36
4273;BME280;63887;53.656;9.810;2022-10-16T10:31:21;101390.13;;;15.61;77.35
4273;BME280;63887;53.656;9.810;2022-10-16T10:33:55;101396.25;;;15.62;77.36
4273;BME280;63887;53.656;9.810;2022-10-16T10:36:29;101395.66;;;15.71;77.27
4273;BME280;63887;53.656;9.810;2022-10-16T10:38:59;101395.50;;;15.87;76.41
4273;BME280;63887;53.656;9.810;2022-10-16T10:44:54;101410.63;;;15.85;76.07
4273;BME280;63887;53.656;9.810;2022-10-16T10:47:29;101411.69;;;15.82;75.47
4273;BME280;63887;53.656;9.810;2022-10-16T10:50:06;101407.34;;;15.81;75.34
4273;BME280;63887;53.656;9.810;2022-10-16T10:52:43;101410.84;;;15.82;74.71
4273;BME280;63887;53.656;9.810;2022-10-16T10:55:20;101399.94;;;15.86;74.74
4273;BME280;63887;53.656;9.810;2022-10-16T10:58:14;101412.31;;;15.86;75.07
4273;BME280;63887;53.656;9.810;2022-10-16T11:00:48;101414.03;;;15.87;74.55
4273;BME280;63887;53.656;9.810;2022-10-16T11:03:31;101428.84;;;15.89;74.15
4273;BME280;63887;53.656;9.810;2022-10-16T11:06:04;101431.31;;;15.92;74.30
4273;BME280;63887;53.656;9.810;2022-10-16T11:08:35;101430.13;;;15.96;74.25
4273;BME280;63887;53.656;9.810;2022-10-16T11:11:05;101432.56;;;15.99;74.00
4273;BME280;63887;53.656;9.810;2022-10-16T11:13:37;101435.66;;;16.06;73.91
4273;BME280;63887;53.656;9.810;2022-10-16T11:16:11;101422.22;;;16.09;73.62
4273;BME280;63887;53.656;9.810;2022-10-16T11:18:45;101440.47;;;16.26;73.69
4273;BME280;63887;53.656;9.810;2022-10-16T11:21:18;101438.03;;;16.36;71.84
4273;BME280;63887;53.656;9.810;2022-10-16T11:23:52;101449.38;;;16.38;72.26
4273;BME280;63887;53.656;9.810;2022-10-16T11:26:24;101445.78;;;16.39;71.92
4273;BME280;63887;53.656;9.810;2022-10-16T11:28:54;101447.50;;;16.53;71.22
4273;BME280;63887;53.656;9.810;2022-10-16T11:31:26;101460.22;;;16.73;70.19
4273;BME280;63887;53.656;9.810;2022-10-16T11:34:03;101458.53;;;16.72;69.46
4273;BME280;63887;53.656;9.810;2022-10-16T11:36:36;101460.72;;;16.65;70.38
4273;BME280;63887;53.656;9.810;2022-10-16T11:39:13;101451.94;;;16.78;70.19
4273;BME280;63887;53.656;9.810;2022-10-16T11:41:46;101456.28;;;16.79;69.26
4273;BME280;63887;53.656;9.810;2022-10-16T11:44:27;101455.44;;;16.78;68.28
4273;BME280;63887;53.656;9.810;2022-10-16T11:47:03;101461.19;;;16.72;69.66
4273;BME280;63887;53.656;9.810;2022-10-16T11:49:35;101466.66;;;16.94;68.97
4273;BME280;63887;53.656;9.810;2022-10-16T11:52:07;101467.63;;;16.93;69.00
4273;BME280;63887;53.656;9.810;2022-10-16T11:54:43;101465.53;;;16.98;68.62
4273;BME280;63887;53.656;9.810;2022-10-16T11:57:13;101468.38;;;16.95;68.07
4273;BME280;63887;53.656;9.810;2022-10-16T11:59:45;101478.56;;;16.89;70.23
4273;BME280;63887;53.656;9.810;2022-10-16T12:02:26;101470.94;;;16.84;70.81
4273;BME280;63887;53.656;9.810;2022-10-16T12:05:03;101467.44;;;16.96;68.83
4273;BME280;63887;53.656;9.810;2022-10-16T12:07:35;101494.13;;;16.93;68.30
4273;BME280;63887;53.656;9.810;2022-10-16T12:10:20;101486.91;;;16.95;67.07
4273;BME280;63887;53.656;9.810;2022-10-16T12:12:46;101488.81;;;16.81;66.92
4273;BME280;63887;53.656;9.810;2022-10-16T12:15:22;101494.78;;;16.72;67.08
4273;BME280;63887;53.656;9.810;2022-10-16T12:17:50;101501.59;;;16.49;68.35
4273;BME280;63887;53.656;9.810;2022-10-16T12:20:23;101510.78;;;16.30;68.91
4273;BME280;63887;53.656;9.810;2022-10-16T12:22:54;101518.03;;;16.14;68.90
4273;BME280;63887;53.656;9.810;2022-10-16T12:25:25;101525.81;;;16.03;70.41
4273;BME280;63887;53.656;9.810;2022-10-16T12:27:59;101520.00;;;15.98;69.38
4273;BME280;63887;53.656;9.810;2022-10-16T12:30:28;101524.69;;;16.07;68.21
4273;BME280;63887;53.656;9.810;2022-10-16T12:32:56;101524.50;;;16.10;66.10
4273;BME280;63887;53.656;9.810;2022-10-16T12:35:25;101518.09;;;16.00;66.78
4273;BME280;63887;53.656;9.810;2022-10-16T12:37:54;101525.09;;;16.01;66.76
4273;BME280;63887;53.656;9.810;2022-10-16T12:40:33;101526.69;;;16.03;66.97
4273;BME280;63887;53.656;9.810;2022-10-16T12:43:12;101532.19;;;16.00;66.42
4273;BME280;63887;53.656;9.810;2022-10-16T12:45:39;101536.97;;;16.08;66.71
4273;BME280;63887;53.656;9.810;2022-10-16T12:48:20;101533.72;;;16.17;65.02
4273;BME280;63887;53.656;9.810;2022-10-16T12:50:46;101541.06;;;16.26;64.80
4273;BME280;63887;53.656;9.810;2022-10-16T12:53:21;101541.06;;;16.26;64.49
4273;BME280;63887;53.656;9.810;2022-10-16T12:56:03;101545.59;;;16.24;65.07
4273;BME280;63887;53.656;9.810;2022-10-16T12:58:59;101542.78;;;16.40;64.28
4273;BME280;63887;53.656;9.810;2022-10-16T13:01:37;101553.03;;;16.32;64.10
4273;BME280;63887;53.656;9.810;2022-10-16T13:07:23;101558.22;;;16.33;63.53
4273;BME280;63887;53.656;9.810;2022-10-16T13:10:02;101567.31;;;16.29;63.21
4273;BME280;63887;53.656;9.810;2022-10-16T13:12:49;101573.25;;;16.33;61.94
4273;BME280;63887;53.656;9.810;2022-10-16T13:15:31;101571.34;;;16.35;62.31
4273;BME280;63887;53.656;9.810;2022-10-16T13:18:05;101572.13;;;16.37;62.43
4273;BME280;63887;53.656;9.810;2022-10-16T13:20:37;101589.78;;;16.36;63.17
4273;BME280;63887;53.656;9.810;2022-10-16T13:23:13;101590.47;;;16.40;63.32